sensor_id;sensor_type;location;lat;lon;timestamp;temperature;humidity
35804;DHT22;21924;51.934;7.414;2023-10-31T00:08:24;12.40;99.90
35804;DHT22;21924;51.934;7.414;2023-10-31T00:11:11;12.40;99.90
35804;DHT22;21924;51.934;7.414;2023-10-31T00:13:55;12.40;99.90
35804;DHT22;21924;51.934;7.414;2023-10-31T00:16:40;12.40;99.90
35804;DHT22;21924;51.934;7.414;2023-10-31T00:19:24;12.40;99.90
35804;DHT22;21924;51.934;7.414;2023-10-31T00:22:08;12.40;99.90
35804;DHT22;21924;51.934;7.414;2023-10-31T00:24:55;12.50;99.90
35804;DHT22;21924;51.934;7.414;2023-10-31T00:27:39;12.40;99.90
35804;DHT22;21924;51.934;7.414;2023-10-31T00:30:24;12.40;99.90
35804;DHT22;21924;51.934;7.414;2023-10-31T00:33:27;12.40;99.90
35804;DHT22;21924;51.934;7.414;2023-10-31T00:39:49;12.40;99.90
35804;DHT22;21924;51.934;7.414;2023-10-31T00:49:26;12.50;99.90
35804;DHT22;21924;51.934;7.414;2023-10-31T01:12:24;12.40;99.90
35804;DHT22;21924;51.934;7.414;2023-10-31T01:18:38;12.40;99.90
35804;DHT22;21924;51.934;7.414;2023-10-31T01:37:56;11.20;99.90
35804;DHT22;21924;51.934;7.414;2023-10-31T01:47:28;10.90;99.90
35804;DHT22;21924;51.934;7.414;2023-10-31T01:50:15;10.80;99.90
35804;DHT22;21924;51.934;7.414;2023-10-31T01:59:44;10.60;99.90
35804;DHT22;21924;51.934;7.414;2023-10-31T02:02:29;10.60;99.90
35804;DHT22;21924;51.934;7.414;2023-10-31T02:05:14;10.50;99.90
35804;DHT22;21924;51.934;7.414;2023-10-31T02:07:59;10.50;99.90
35804;DHT22;21924;51.934;7.414;2023-10-31T02:10:46;10.50;99.90
35804;DHT22;21924;51.934;7.414;2023-10-31T02:13:32;10.40;99.90
35804;DHT22;21924;51.934;7.414;2023-10-31T02:16:17;10.40;99.90
35804;DHT22;21924;51.934;7.414;2023-10-31T02:19:03;10.40;99.90
35804;DHT22;21924;51.934;7.414;2023-10-31T02:21:49;10.40;99.90
35804;DHT22;21924;51.934;7.414;2023-10-31T02:24:36;10.40;99.90
35804;DHT22;21924;51.934;7.414;2023-10-31T02:27:22;10.40;99.90
35804;DHT22;21924;51.934;7.414;2023-10-31T02:30:28;10.40;99.90
35804;DHT22;21924;51.934;7.414;2023-10-31T02:33:14;10.40;99.90
35804;DHT22;21924;51.934;7.414;2023-10-31T02:36:05;10.30;99.90
35804;DHT22;21924;51.934;7.414;2023-10-31T02:38:49;10.40;99.90
35804;DHT22;21924;51.934;7.414;2023-10-31T02:41:38;10.40;99.90
35804;DHT22;21924;51.934;7.414;2023-10-31T02:44:29;10.40;99.90
35804;DHT22;21924;51.934;7.414;2023-10-31T02:47:16;10.40;99.90
35804;DHT22;21924;51.934;7.414;2023-10-31T02:50:32;10.30;99.90
35804;DHT22;21924;51.934;7.414;2023-10-31T02:53:23;10.30;99.90
35804;DHT22;21924;51.934;7.414;2023-10-31T02:56:33;10.30;99.90
35804;DHT22;21924;51.934;7.414;2023-10-31T02:59:23;10.20;99.90
35804;DHT22;21924;51.934;7.414;2023-10-31T03:02:07;10.20;99.90
35804;DHT22;21924;51.934;7.414;2023-10-31T03:05:01;10.30;99.90
35804;DHT22;21924;51.934;7.414;2023-10-31T03:08:21;10.20;99.90
35804;DHT22;21924;51.934;7.414;2023-10-31T03:11:08;10.30;99.90
35804;DHT22;21924;51.934;7.414;2023-10-31T03:17:35;10.30;99.90
35804;DHT22;21924;51.934;7.414;2023-10-31T03:20:35;10.20;99.90
35804;DHT22;21924;51.934;7.414;2023-10-31T03:23:35;10.20;99.90
35804;DHT22;21924;51.934;7.414;2023-10-31T03:33:37;10.20;99.90
35804;DHT22;21924;51.934;7.414;2023-10-31T03:36:37;10.20;99.90
35804;DHT22;21924;51.934;7.414;2023-10-31T03:42:51;10.10;99.90
35804;DHT22;21924;51.934;7.414;2023-10-31T03:45:37;10.10;99.90
35804;DHT22;21924;51.934;7.414;2023-10-31T03:48:21;10.10;99.90
35804;DHT22;21924;51.934;7.414;2023-10-31T03:51:05;10.10;99.90
35804;DHT22;21924;51.934;7.414;2023-10-31T03:54:14;10.10;99.90
35804;DHT22;21924;51.934;7.414;2023-10-31T03:57:04;10.10;99.90
35804;DHT22;21924;51.934;7.414;2023-10-31T03:59:48;10.10;99.90
35804;DHT22;21924;51.934;7.414;2023-10-31T04:02:38;10.10;99.90
35804;DHT22;21924;51.934;7.414;2023-10-31T04:05:56;10.10;99.90
35804;DHT22;21924;51.934;7.414;2023-10-31T04:08:46;10.10;99.90
35804;DHT22;21924;51.934;7.414;2023-10-31T04:12:12;10.10;99.90
35804;DHT22;21924;51.934;7.414;2023-10-31T04:22:39;10.10;99.90
35804;DHT22;21924;51.934;7.414;2023-10-31T04:25:38;10.10;99.90
35804;DHT22;21924;51.934;7.414;2023-10-31T04:28:41;10.20;99.90
35804;DHT22;21924;51.934;7.414;2023-10-31T04:31:25;10.20;99.90
35804;DHT22;21924;51.934;7.414;2023-10-31T04:34:28;10.20;99.90
35804;DHT22;21924;51.934;7.414;2023-10-31T04:37:13;10.20;99.90
35804;DHT22;21924;51.934;7.414;2023-10-31T04:40:20;10.20;99.90
35804;DHT22;21924;51.934;7.414;2023-10-31T04:43:10;10.20;99.90
35804;DHT22;21924;51.934;7.414;2023-10-31T04:45:57;10.20;99.90
35804;DHT22;21924;51.934;7.414;2023-10-31T04:48:48;10.20;99.90
35804;DHT22;21924;51.934;7.414;2023-10-31T04:51:41;10.20;99.90
35804;DHT22;21924;51.934;7.414;2023-10-31T04:54:41;10.10;99.90
35804;DHT22;21924;51.934;7.414;2023-10-31T04:57:40;10.10;99.90
35804;DHT22;21924;51.934;7.414;2023-10-31T05:00:41;10.10;99.90
35804;DHT22;21924;51.934;7.414;2023-10-31T05:03:26;10.10;99.90
35804;DHT22;21924;51.934;7.414;2023-10-31T05:06:59;10.10;99.90
35804;DHT22;21924;51.934;7.414;2023-10-31T05:09:52;10.00;99.90
35804;DHT22;21924;51.934;7.414;2023-10-31T05:12:39;10.10;99.90
35804;DHT22;21924;51.934;7.414;2023-10-31T05:15:58;10.10;99.90
35804;DHT22;21924;51.934;7.414;2023-10-31T05:18:42;10.10;99.90
35804;DHT22;21924;51.934;7.414;2023-10-31T05:21:26;10.10;99.90
35804;DHT22;21924;51.934;7.414;2023-10-31T05:24:12;10.10;99.90
35804;DHT22;21924;51.934;7.414;2023-10-31T05:27:04;10.10;99.90
35804;DHT22;21924;51.934;7.414;2023-10-31T05:29:51;10.10;99.90
35804;DHT22;21924;51.934;7.414;2023-10-31T05:32:36;10.10;99.90
35804;DHT22;21924;51.934;7.414;2023-10-31T05:35:42;10.20;99.90
35804;DHT22;21924;51.934;7.414;2023-10-31T05:38:26;10.20;99.90
35804;DHT22;21924;51.934;7.414;2023-10-31T05:41:17;10.10;99.90
35804;DHT22;21924;51.934;7.414;2023-10-31T05:44:05;10.20;99.90
35804;DHT22;21924;51.934;7.414;2023-10-31T05:46:55;10.20;99.90
35804;DHT22;21924;51.934;7.414;2023-10-31T05:50:16;10.10;99.90
35804;DHT22;21924;51.934;7.414;2023-10-31T05:53:25;10.20;99.90
35804;DHT22;21924;51.934;7.414;2023-10-31T05:56:11;10.10;99.90
35804;DHT22;21924;51.934;7.414;2023-10-31T06:02:27;10.10;99.90
35804;DHT22;21924;51.934;7.414;2023-10-31T06:06:00;10.00;99.90
35804;DHT22;21924;51.934;7.414;2023-10-31T06:09:09;10.00;99.90
35804;DHT22;21924;51.934;7.414;2023-10-31T06:12:31;10.00;99.90
35804;DHT22;21924;51.934;7.414;2023-10-31T06:15:38;10.00;99.90
35804;DHT22;21924;51.934;7.414;2023-10-31T06:18:32;9.90;99.90
35804;DHT22;21924;51.934;7.414;2023-10-31T06:21:16;9.90;99.90
35804;DHT22;21924;51.934;7.414;2023-10-31T06:24:25;9.90;99.90
35804;DHT22;21924;51.934;7.414;2023-10-31T06:27:12;9.90;99.90
35804;DHT22;21924;51.934;7.414;2023-10-31T06:30:19;9.90;99.90
35804;DHT22;21924;51.934;7.414;2023-10-31T06:33:30;9.90;99.90
35804;DHT22;21924;51.934;7.414;2023-10-31T06:39:20;9.80;99.90
35804;DHT22;21924;51.934;7.414;2023-10-31T06:42:13;9.80;99.90
35804;DHT22;21924;51.934;7.414;2023-10-31T06:44:58;9.80;99.90
35804;DHT22;21924;51.934;7.414;2023-10-31T06:48:07;9.80;99.90
35804;DHT22;21924;51.934;7.414;2023-10-31T06:50:53;9.80;99.90
35804;DHT22;21924;51.934;7.414;2023-10-31T06:53:37;9.80;99.90
35804;DHT22;21924;51.934;7.414;2023-10-31T06:56:21;9.80;99.90
35804;DHT22;21924;51.934;7.414;2023-10-31T06:59:06;9.80;99.90
35804;DHT22;21924;51.934;7.414;2023-10-31T07:01:50;9.70;99.90
35804;DHT22;21924;51.934;7.414;2023-10-31T07:04:35;9.70;99.90
35804;DHT22;21924;51.934;7.414;2023-10-31T07:07:19;9.70;99.90
35804;DHT22;21924;51.934;7.414;2023-10-31T07:10:03;9.70;99.90
35804;DHT22;21924;51.934;7.414;2023-10-31T07:12:48;9.70;99.90
35804;DHT22;21924;51.934;7.414;2023-10-31T07:15:32;9.80;99.90
35804;DHT22;21924;51.934;7.414;2023-10-31T07:18:16;9.80;99.90
35804;DHT22;21924;51.934;7.414;2023-10-31T07:21:01;9.80;99.90
35804;DHT22;21924;51.934;7.414;2023-10-31T07:23:45;9.90;99.90
35804;DHT22;21924;51.934;7.414;2023-10-31T07:26:30;9.80;99.90
35804;DHT22;21924;51.934;7.414;2023-10-31T07:29:14;9.90;99.90
35804;DHT22;21924;51.934;7.414;2023-10-31T07:31:59;10.00;99.90
35804;DHT22;21924;51.934;7.414;2023-10-31T07:34:43;10.00;99.90
35804;DHT22;21924;51.934;7.414;2023-10-31T07:37:27;10.00;99.90
35804;DHT22;21924;51.934;7.414;2023-10-31T07:40:12;10.10;99.90
35804;DHT22;21924;51.934;7.414;2023-10-31T07:42:56;10.20;99.90
35804;DHT22;21924;51.934;7.414;2023-10-31T07:45:40;10.20;99.90
35804;DHT22;21924;51.934;7.414;2023-10-31T07:48:25;10.30;99.90
35804;DHT22;21924;51.934;7.414;2023-10-31T07:51:10;10.30;99.90
35804;DHT22;21924;51.934;7.414;2023-10-31T07:53:56;10.40;99.90
35804;DHT22;21924;51.934;7.414;2023-10-31T07:56:43;10.30;99.90
35804;DHT22;21924;51.934;7.414;2023-10-31T07:59:28;10.40;99.90
35804;DHT22;21924;51.934;7.414;2023-10-31T08:02:20;10.50;99.90
35804;DHT22;21924;51.934;7.414;2023-10-31T08:05:09;10.50;99.90
35804;DHT22;21924;51.934;7.414;2023-10-31T08:07:53;10.50;99.90
35804;DHT22;21924;51.934;7.414;2023-10-31T08:10:39;10.50;99.90
35804;DHT22;21924;51.934;7.414;2023-10-31T08:13:31;10.60;99.90
35804;DHT22;21924;51.934;7.414;2023-10-31T08:16:36;10.70;99.90
35804;DHT22;21924;51.934;7.414;2023-10-31T08:19:27;10.70;99.90
35804;DHT22;21924;51.934;7.414;2023-10-31T08:22:49;10.70;99.90
35804;DHT22;21924;51.934;7.414;2023-10-31T08:45:08;10.80;99.90
35804;DHT22;21924;51.934;7.414;2023-10-31T08:47:59;11.00;99.90
35804;DHT22;21924;51.934;7.414;2023-10-31T08:51:08;11.10;99.90
35804;DHT22;21924;51.934;7.414;2023-10-31T08:57:47;11.20;99.90
35804;DHT22;21924;51.934;7.414;2023-10-31T09:00:47;11.30;99.90
35804;DHT22;21924;51.934;7.414;2023-10-31T09:03:31;11.30;99.90
35804;DHT22;21924;51.934;7.414;2023-10-31T09:06:17;11.30;99.90
35804;DHT22;21924;51.934;7.414;2023-10-31T09:09:40;11.40;99.90
35804;DHT22;21924;51.934;7.414;2023-10-31T09:12:24;11.40;99.90
35804;DHT22;21924;51.934;7.414;2023-10-31T09:15:11;11.40;99.90
35804;DHT22;21924;51.934;7.414;2023-10-31T09:17:59;11.50;99.90
35804;DHT22;21924;51.934;7.414;2023-10-31T09:20:43;11.60;99.90
35804;DHT22;21924;51.934;7.414;2023-10-31T09:23:27;11.80;99.90
35804;DHT22;21924;51.934;7.414;2023-10-31T09:26:12;11.80;99.90
35804;DHT22;21924;51.934;7.414;2023-10-31T09:28:56;11.80;99.90
35804;DHT22;21924;51.934;7.414;2023-10-31T09:31:41;11.80;99.90
35804;DHT22;21924;51.934;7.414;2023-10-31T09:34:32;11.90;99.90
35804;DHT22;21924;51.934;7.414;2023-10-31T09:37:17;12.00;99.90
35804;DHT22;21924;51.934;7.414;2023-10-31T09:40:03;12.00;99.90
35804;DHT22;21924;51.934;7.414;2023-10-31T09:42:49;11.80;99.90
35804;DHT22;21924;51.934;7.414;2023-10-31T09:45:43;11.70;99.90
35804;DHT22;21924;51.934;7.414;2023-10-31T09:48:34;11.60;99.90
35804;DHT22;21924;51.934;7.414;2023-10-31T09:51:44;11.70;99.90
35804;DHT22;21924;51.934;7.414;2023-10-31T09:54:39;11.90;99.90
35804;DHT22;21924;51.934;7.414;2023-10-31T09:57:25;12.00;99.90
35804;DHT22;21924;51.934;7.414;2023-10-31T10:00:14;12.00;99.90
35804;DHT22;21924;51.934;7.414;2023-10-31T10:02:59;12.20;99.90
35804;DHT22;21924;51.934;7.414;2023-10-31T10:09:10;12.40;99.90
35804;DHT22;21924;51.934;7.414;2023-10-31T10:12:00;12.30;99.90
35804;DHT22;21924;51.934;7.414;2023-10-31T10:14:59;12.40;99.90
35804;DHT22;21924;51.934;7.414;2023-10-31T10:17:56;12.40;99.90
35804;DHT22;21924;51.934;7.414;2023-10-31T10:21:03;12.30;99.90
35804;DHT22;21924;51.934;7.414;2023-10-31T10:24:32;12.30;99.90
35804;DHT22;21924;51.934;7.414;2023-10-31T10:41:02;12.10;99.90
35804;DHT22;21924;51.934;7.414;2023-10-31T10:48:01;12.20;99.90
35804;DHT22;21924;51.934;7.414;2023-10-31T11:05:05;12.50;99.90
35804;DHT22;21924;51.934;7.414;2023-10-31T11:18:03;12.60;99.90
35804;DHT22;21924;51.934;7.414;2023-10-31T11:27:45;12.30;99.90
35804;DHT22;21924;51.934;7.414;2023-10-31T11:31:04;12.20;99.90
35804;DHT22;21924;51.934;7.414;2023-10-31T11:34:03;12.20;99.90
35804;DHT22;21924;51.934;7.414;2023-10-31T11:47:15;12.10;99.90
35804;DHT22;21924;51.934;7.414;2023-10-31T11:50:05;12.00;99.90
35804;DHT22;21924;51.934;7.414;2023-10-31T11:53:05;11.90;99.90
35804;DHT22;21924;51.934;7.414;2023-10-31T11:56:05;11.80;99.90
35804;DHT22;21924;51.934;7.414;2023-10-31T11:59:01;11.70;99.90
35804;DHT22;21924;51.934;7.414;2023-10-31T12:08:52;11.70;99.90
35804;DHT22;21924;51.934;7.414;2023-10-31T12:15:07;11.60;99.90
35804;DHT22;21924;51.934;7.414;2023-10-31T12:18:07;11.60;99.90
35804;DHT22;21924;51.934;7.414;2023-10-31T12:21:01;11.50;99.90
35804;DHT22;21924;51.934;7.414;2023-10-31T12:23:51;11.60;99.90
35804;DHT22;21924;51.934;7.414;2023-10-31T12:31:05;11.70;99.90
35804;DHT22;21924;51.934;7.414;2023-10-31T12:33:53;11.70;99.90
35804;DHT22;21924;51.934;7.414;2023-10-31T12:40:07;11.80;99.90
35804;DHT22;21924;51.934;7.414;2023-10-31T12:42:53;11.80;99.90
35804;DHT22;21924;51.934;7.414;2023-10-31T12:56:10;12.00;99.90
35804;DHT22;21924;51.934;7.414;2023-10-31T12:59:10;12.00;99.90
35804;DHT22;21924;51.934;7.414;2023-10-31T13:02:19;12.00;99.90
35804;DHT22;21924;51.934;7.414;2023-10-31T13:05:42;12.00;99.90
35804;DHT22;21924;51.934;7.414;2023-10-31T13:22:11;13.00;99.90
35804;DHT22;21924;51.934;7.414;2023-10-31T13:35:11;13.20;99.90
35804;DHT22;21924;51.934;7.414;2023-10-31T13:38:15;13.30;99.90
35804;DHT22;21924;51.934;7.414;2023-10-31T13:41:05;13.10;99.90
35804;DHT22;21924;51.934;7.414;2023-10-31T13:43:55;13.10;99.90
35804;DHT22;21924;51.934;7.414;2023-10-31T13:46:44;13.20;99.90
35804;DHT22;21924;51.934;7.414;2023-10-31T13:49:28;13.20;99.90
35804;DHT22;21924;51.934;7.414;2023-10-31T13:52:44;13.30;99.90
35804;DHT22;21924;51.934;7.414;2023-10-31T13:55:32;13.30;99.90
35804;DHT22;21924;51.934;7.414;2023-10-31T13:58:58;13.30;99.90
35804;DHT22;21924;51.934;7.414;2023-10-31T14:09:14;12.80;99.90
35804;DHT22;21924;51.934;7.414;2023-10-31T14:19:15;12.40;99.90
35804;DHT22;21924;51.934;7.414;2023-10-31T14:22:15;12.30;99.90
35804;DHT22;21924;51.934;7.414;2023-10-31T14:25:15;12.30;99.90
35804;DHT22;21924;51.934;7.414;2023-10-31T14:28:14;12.20;99.90
35804;DHT22;21924;51.934;7.414;2023-10-31T14:31:15;12.30;99.90
35804;DHT22;21924;51.934;7.414;2023-10-31T14:34:15;12.40;99.90
35804;DHT22;21924;51.934;7.414;2023-10-31T14:37:18;12.40;99.90
35804;DHT22;21924;51.934;7.414;2023-10-31T14:40:25;12.50;99.90
35804;DHT22;21924;51.934;7.414;2023-10-31T14:50:19;12.50;99.90
35804;DHT22;21924;51.934;7.414;2023-10-31T14:53:18;12.40;99.90
35804;DHT22;21924;51.934;7.414;2023-10-31T15:03:19;12.30;99.90
35804;DHT22;21924;51.934;7.414;2023-10-31T15:06:12;12.30;99.90
35804;DHT22;21924;51.934;7.414;2023-10-31T15:09:21;12.20;99.90
35804;DHT22;21924;51.934;7.414;2023-10-31T15:19:35;11.90;99.90
35804;DHT22;21924;51.934;7.414;2023-10-31T15:22:21;11.80;99.90
35804;DHT22;21924;51.934;7.414;2023-10-31T15:25:14;11.70;99.90
35804;DHT22;21924;51.934;7.414;2023-10-31T15:34:51;11.60;99.90
35804;DHT22;21924;51.934;7.414;2023-10-31T15:37:40;11.60;99.90
35804;DHT22;21924;51.934;7.414;2023-10-31T15:41:23;11.50;99.90
35804;DHT22;21924;51.934;7.414;2023-10-31T15:44:23;11.50;99.90
35804;DHT22;21924;51.934;7.414;2023-10-31T15:47:23;11.50;99.90
35804;DHT22;21924;51.934;7.414;2023-10-31T15:50:23;11.40;99.90
35804;DHT22;21924;51.934;7.414;2023-10-31T15:53:26;11.40;99.90
35804;DHT22;21924;51.934;7.414;2023-10-31T15:56:24;11.40;99.90
35804;DHT22;21924;51.934;7.414;2023-10-31T15:59:25;11.30;99.90
35804;DHT22;21924;51.934;7.414;2023-10-31T16:02:29;11.30;99.90
35804;DHT22;21924;51.934;7.414;2023-10-31T16:05:25;11.30;99.90
35804;DHT22;21924;51.934;7.414;2023-10-31T16:08:26;11.30;99.90
35804;DHT22;21924;51.934;7.414;2023-10-31T16:11:19;11.30;99.90
35804;DHT22;21924;51.934;7.414;2023-10-31T16:14:09;11.20;99.90
35804;DHT22;21924;51.934;7.414;2023-10-31T16:17:27;11.10;99.90
35804;DHT22;21924;51.934;7.414;2023-10-31T16:20:24;11.00;99.90
35804;DHT22;21924;51.934;7.414;2023-10-31T16:23:11;11.00;99.90
35804;DHT22;21924;51.934;7.414;2023-10-31T16:25:55;11.00;99.90
35804;DHT22;21924;51.934;7.414;2023-10-31T16:28:39;10.90;99.90
35804;DHT22;21924;51.934;7.414;2023-10-31T16:31:23;11.00;99.90
35804;DHT22;21924;51.934;7.414;2023-10-31T16:34:08;10.90;99.90
35804;DHT22;21924;51.934;7.414;2023-10-31T16:36:52;10.90;99.90
35804;DHT22;21924;51.934;7.414;2023-10-31T16:39:36;10.80;99.90
35804;DHT22;21924;51.934;7.414;2023-10-31T16:42:20;10.90;99.90
35804;DHT22;21924;51.934;7.414;2023-10-31T16:45:05;10.90;99.90
35804;DHT22;21924;51.934;7.414;2023-10-31T16:47:49;10.90;99.90
35804;DHT22;21924;51.934;7.414;2023-10-31T16:50:35;10.90;99.90
35804;DHT22;21924;51.934;7.414;2023-10-31T16:53:19;10.80;99.90
35804;DHT22;21924;51.934;7.414;2023-10-31T16:56:07;10.70;99.90
35804;DHT22;21924;51.934;7.414;2023-10-31T16:59:07;10.70;99.90
35804;DHT22;21924;51.934;7.414;2023-10-31T17:01:57;10.60;99.90
35804;DHT22;21924;51.934;7.414;2023-10-31T17:04:42;10.60;99.90
35804;DHT22;21924;51.934;7.414;2023-10-31T17:34:17;10.50;99.90
35804;DHT22;21924;51.934;7.414;2023-10-31T17:37:11;10.50;99.90
35804;DHT22;21924;51.934;7.414;2023-10-31T17:40:00;10.50;99.90
35804;DHT22;21924;51.934;7.414;2023-10-31T17:46:08;10.50;99.90
35804;DHT22;21924;51.934;7.414;2023-10-31T17:52:44;10.50;99.90
35804;DHT22;21924;51.934;7.414;2023-10-31T17:55:38;10.50;99.90
35804;DHT22;21924;51.934;7.414;2023-10-31T17:58:38;10.60;99.90
35804;DHT22;21924;51.934;7.414;2023-10-31T18:01:23;10.60;99.90
35804;DHT22;21924;51.934;7.414;2023-10-31T18:07:49;10.60;99.90
35804;DHT22;21924;51.934;7.414;2023-10-31T18:10:35;10.60;99.90
35804;DHT22;21924;51.934;7.414;2023-10-31T18:13:25;10.60;99.90
35804;DHT22;21924;51.934;7.414;2023-10-31T18:16:16;10.60;99.90
35804;DHT22;21924;51.934;7.414;2023-10-31T18:19:28;10.60;99.90
35804;DHT22;21924;51.934;7.414;2023-10-31T18:22:12;10.60;99.90
35804;DHT22;21924;51.934;7.414;2023-10-31T18:24:58;10.60;99.90
35804;DHT22;21924;51.934;7.414;2023-10-31T18:27:42;10.60;99.90
35804;DHT22;21924;51.934;7.414;2023-10-31T18:30:26;10.60;99.90
35804;DHT22;21924;51.934;7.414;2023-10-31T18:33:11;10.50;99.90
35804;DHT22;21924;51.934;7.414;2023-10-31T18:35:55;10.60;99.90
35804;DHT22;21924;51.934;7.414;2023-10-31T18:38:46;10.60;99.90
35804;DHT22;21924;51.934;7.414;2023-10-31T18:41:31;10.60;99.90
35804;DHT22;21924;51.934;7.414;2023-10-31T18:44:25;10.60;99.90
35804;DHT22;21924;51.934;7.414;2023-10-31T18:50:42;10.60;99.90
35804;DHT22;21924;51.934;7.414;2023-10-31T18:53:42;10.60;99.90
35804;DHT22;21924;51.934;7.414;2023-10-31T19:16:47;10.60;99.90
35804;DHT22;21924;51.934;7.414;2023-10-31T19:29:45;10.60;99.90
35804;DHT22;21924;51.934;7.414;2023-10-31T19:32:44;10.70;99.90
35804;DHT22;21924;51.934;7.414;2023-10-31T19:35:45;10.70;99.90
35804;DHT22;21924;51.934;7.414;2023-10-31T19:45:34;10.60;99.90
35804;DHT22;21924;51.934;7.414;2023-10-31T19:48:43;10.70;99.90
35804;DHT22;21924;51.934;7.414;2023-10-31T19:51:39;10.70;99.90
35804;DHT22;21924;51.934;7.414;2023-10-31T19:57:30;10.60;99.90
35804;DHT22;21924;51.934;7.414;2023-10-31T20:00:46;10.60;99.90
35804;DHT22;21924;51.934;7.414;2023-10-31T20:13:51;10.50;99.90
35804;DHT22;21924;51.934;7.414;2023-10-31T20:16:48;10.60;99.90
35804;DHT22;21924;51.934;7.414;2023-10-31T20:19:48;10.50;99.90
35804;DHT22;21924;51.934;7.414;2023-10-31T20:22:51;10.50;99.90
35804;DHT22;21924;51.934;7.414;2023-10-31T20:25:51;10.60;99.90
35804;DHT22;21924;51.934;7.414;2023-10-31T20:28:51;10.60;99.90
35804;DHT22;21924;51.934;7.414;2023-10-31T20:31:37;10.60;99.90
35804;DHT22;21924;51.934;7.414;2023-10-31T20:34:25;10.60;99.90
35804;DHT22;21924;51.934;7.414;2023-10-31T20:37:11;10.60;99.90
35804;DHT22;21924;51.934;7.414;2023-10-31T20:39:55;10.70;99.90
35804;DHT22;21924;51.934;7.414;2023-10-31T20:42:45;10.60;99.90
35804;DHT22;21924;51.934;7.414;2023-10-31T20:48:46;10.70;99.90
35804;DHT22;21924;51.934;7.414;2023-10-31T20:51:33;10.70;99.90
35804;DHT22;21924;51.934;7.414;2023-10-31T20:54:18;10.70;99.90
35804;DHT22;21924;51.934;7.414;2023-10-31T21:00:30;10.70;99.90
35804;DHT22;21924;51.934;7.414;2023-10-31T21:03:34;10.70;99.90
35804;DHT22;21924;51.934;7.414;2023-10-31T21:09:51;10.80;99.90
35804;DHT22;21924;51.934;7.414;2023-10-31T21:12:38;10.80;99.90
35804;DHT22;21924;51.934;7.414;2023-10-31T21:15:25;10.70;99.90
35804;DHT22;21924;51.934;7.414;2023-10-31T21:18:09;10.70;99.90
35804;DHT22;21924;51.934;7.414;2023-10-31T21:21:12;10.80;99.90
35804;DHT22;21924;51.934;7.414;2023-10-31T21:24:23;10.80;99.90
35804;DHT22;21924;51.934;7.414;2023-10-31T21:27:38;10.80;99.90
35804;DHT22;21924;51.934;7.414;2023-10-31T21:34:04;10.80;99.90
35804;DHT22;21924;51.934;7.414;2023-10-31T21:40:05;10.80;99.90
35804;DHT22;21924;51.934;7.414;2023-10-31T21:42:49;10.80;99.90
35804;DHT22;21924;51.934;7.414;2023-10-31T21:45:33;10.80;99.90
35804;DHT22;21924;51.934;7.414;2023-10-31T21:48:18;10.80;99.90
35804;DHT22;21924;51.934;7.414;2023-10-31T21:51:02;10.80;99.90
35804;DHT22;21924;51.934;7.414;2023-10-31T21:53:46;10.80;99.90
35804;DHT22;21924;51.934;7.414;2023-10-31T21:56:31;10.80;99.90
35804;DHT22;21924;51.934;7.414;2023-10-31T21:59:17;10.70;99.90
35804;DHT22;21924;51.934;7.414;2023-10-31T22:02:01;10.80;99.90
35804;DHT22;21924;51.934;7.414;2023-10-31T22:04:52;10.80;99.90
35804;DHT22;21924;51.934;7.414;2023-10-31T22:07:57;10.80;99.90
35804;DHT22;21924;51.934;7.414;2023-10-31T22:14:23;10.80;99.90
35804;DHT22;21924;51.934;7.414;2023-10-31T22:17:14;10.80;99.90
35804;DHT22;21924;51.934;7.414;2023-10-31T22:20:15;10.80;99.90
35804;DHT22;21924;51.934;7.414;2023-10-31T22:23:00;10.80;99.90
35804;DHT22;21924;51.934;7.414;2023-10-31T22:32:25;10.80;99.90
35804;DHT22;21924;51.934;7.414;2023-10-31T22:35:45;10.90;99.90
35804;DHT22;21924;51.934;7.414;2023-10-31T22:38:41;10.90;99.90
35804;DHT22;21924;51.934;7.414;2023-10-31T22:44:57;10.90;99.90
35804;DHT22;21924;51.934;7.414;2023-10-31T22:54:51;10.90;99.90
35804;DHT22;21924;51.934;7.414;2023-10-31T22:58:04;11.00;99.90
35804;DHT22;21924;51.934;7.414;2023-10-31T23:00:49;11.00;99.90
35804;DHT22;21924;51.934;7.414;2023-10-31T23:03:33;11.00;99.90
35804;DHT22;21924;51.934;7.414;2023-10-31T23:06:19;11.00;99.90
35804;DHT22;21924;51.934;7.414;2023-10-31T23:09:03;11.00;99.90
35804;DHT22;21924;51.934;7.414;2023-10-31T23:11:48;11.00;99.90
35804;DHT22;21924;51.934;7.414;2023-10-31T23:14:32;11.10;99.90
35804;DHT22;21924;51.934;7.414;2023-10-31T23:17:17;11.10;99.90
35804;DHT22;21924;51.934;7.414;2023-10-31T23:20:01;11.10;99.90
35804;DHT22;21924;51.934;7.414;2023-10-31T23:22:47;11.10;99.90
35804;DHT22;21924;51.934;7.414;2023-10-31T23:28:50;11.10;99.90
35804;DHT22;21924;51.934;7.414;2023-10-31T23:31:54;11.10;99.90
35804;DHT22;21924;51.934;7.414;2023-10-31T23:34:38;11.10;99.90
35804;DHT22;21924;51.934;7.414;2023-10-31T23:37:25;11.00;99.90
35804;DHT22;21924;51.934;7.414;2023-10-31T23:40:12;11.10;99.90
35804;DHT22;21924;51.934;7.414;2023-10-31T23:42:56;11.10;99.90
35804;DHT22;21924;51.934;7.414;2023-10-31T23:45:40;11.10;99.90
35804;DHT22;21924;51.934;7.414;2023-10-31T23:48:25;11.10;99.90
35804;DHT22;21924;51.934;7.414;2023-10-31T23:51:09;11.20;99.90
35804;DHT22;21924;51.934;7.414;2023-10-31T23:53:56;11.10;99.90
35804;DHT22;21924;51.934;7.414;2023-10-31T23:57:04;11.10;99.90
35804;DHT22;21924;51.934;7.414;2023-10-31T23:59:48;11.10;99.90
